Time;durP1;ratioP1;P1;durP2;ratioP2;P2;SDS_P1;SDS_P2;PMS_P1;PMS_P2;Temp;Humidity;BMP_temperature;BMP_pressure;BME280_temperature;BME280_humidity;BME280_pressure;Samples;Min_cycle;Max_cycle;Signal;HPM_P1;HPM_P2
2023/12/09 00:00:50;;;;;;;;;;;;;;;1.42;83.51;99942.84;5076971;28;20385;-78
2023/12/09 00:03:20;;;;;;;;;;;;;;;1.49;83.28;99944.81;5076856;28;19973;-78
2023/12/09 00:05:49;;;;;;;;;;;;;;;1.51;83.67;99953.25;5076034;28;19924;-77
2023/12/09 00:08:18;;;;;;;;;;;;;;;1.42;83.54;99943.69;5076924;28;20473;-79
2023/12/09 00:10:46;;;;;;;;;;;;;;;1.40;83.39;99944.41;5075584;28;20378;-78
2023/12/09 00:13:16;;;;;;;;;;;;;;;1.42;82.92;99951.22;5076638;28;20276;-77
2023/12/09 00:15:44;;;;;;;;;;;;;;;1.44;83.45;99947.13;5075742;28;20011;-77
2023/12/09 00:18:13;;;;;;;;;;;;;;;1.47;83.54;99951.41;5075735;28;19974;-76
2023/12/09 00:20:44;;;;;;;;;;;;;;;1.45;83.14;99947.97;5075763;28;19926;-76
2023/12/09 00:23:13;;;;;;;;;;;;;;;1.42;82.62;99947.88;5076897;28;19926;-77
2023/12/09 00:25:42;;;;;;;;;;;;;;;1.41;82.44;99951.19;5092222;28;19927;-78
2023/12/09 00:28:11;;;;;;;;;;;;;;;1.40;83.45;99951.97;5075556;28;19927;-78
2023/12/09 00:30:40;;;;;;;;;;;;;;;1.42;82.53;99952.91;5074955;28;19974;-79
2023/12/09 00:33:08;;;;;;;;;;;;;;;1.46;82.53;99955.59;5076683;28;20027;-78
2023/12/09 00:35:37;;;;;;;;;;;;;;;1.44;83.33;99952.13;5076707;28;19970;-78
2023/12/09 00:38:08;;;;;;;;;;;;;;;1.46;83.25;99944.69;5075487;28;19927;-79
2023/12/09 00:40:36;;;;;;;;;;;;;;;1.49;82.68;99949.84;5092958;28;19955;-78
2023/12/09 00:43:05;;;;;;;;;;;;;;;1.50;83.56;99952.41;5092703;28;19920;-78
2023/12/09 00:45:33;;;;;;;;;;;;;;;1.53;83.59;99954.19;5075367;28;19927;-78
2023/12/09 00:48:02;;;;;;;;;;;;;;;1.58;82.98;99951.06;5076177;28;19920;-78
2023/12/09 00:50:31;;;;;;;;;;;;;;;1.61;83.19;99951.16;5091854;28;19920;-78
2023/12/09 00:53:00;;;;;;;;;;;;;;;1.66;82.85;99947.16;5075085;28;19920;-78
2023/12/09 00:55:30;;;;;;;;;;;;;;;1.67;83.02;99950.53;5076237;28;19920;-78
2023/12/09 00:57:59;;;;;;;;;;;;;;;1.68;82.75;99949.75;5075408;28;19920;-78
2023/12/09 01:00:28;;;;;;;;;;;;;;;1.69;83.06;99948.94;5075574;28;20290;-78
2023/12/09 01:02:57;;;;;;;;;;;;;;;1.68;82.93;99942.22;5074646;28;20115;-78
2023/12/09 01:05:25;;;;;;;;;;;;;;;1.67;82.69;99948.03;5075956;28;19928;-78
2023/12/09 01:07:54;;;;;;;;;;;;;;;1.63;83.12;99954.56;5074811;28;19990;-78
2023/12/09 01:10:23;;;;;;;;;;;;;;;1.62;83.18;99952.00;5075670;28;19927;-78
2023/12/09 01:12:54;;;;;;;;;;;;;;;1.62;83.95;99952.00;5075762;28;19997;-79
2023/12/09 01:15:23;;;;;;;;;;;;;;;1.61;83.26;99955.34;5076001;28;20028;-79
2023/12/09 01:17:52;;;;;;;;;;;;;;;1.63;84.27;99956.25;5091590;28;19956;-78
2023/12/09 01:20:21;;;;;;;;;;;;;;;1.67;83.46;99955.56;5075447;28;19950;-78
2023/12/09 01:22:49;;;;;;;;;;;;;;;1.68;84.00;99957.31;5074522;28;19921;-78
2023/12/09 01:25:19;;;;;;;;;;;;;;;1.69;83.42;99944.78;5075687;28;20033;-77
2023/12/09 01:27:48;;;;;;;;;;;;;;;1.70;83.77;99950.66;5075268;28;19931;-77
2023/12/09 01:30:18;;;;;;;;;;;;;;;1.67;84.52;99945.50;5075371;28;19920;-77
2023/12/09 01:32:46;;;;;;;;;;;;;;;1.67;84.47;99950.53;5075289;28;20390;-77
2023/12/09 01:35:15;;;;;;;;;;;;;;;1.63;84.67;99952.06;5074295;28;20011;-78
2023/12/09 01:37:44;;;;;;;;;;;;;;;1.68;83.79;99953.09;5075411;28;20378;-77
2023/12/09 01:40:14;;;;;;;;;;;;;;;1.66;84.76;99948.81;5074362;28;19920;-77
2023/12/09 01:42:44;;;;;;;;;;;;;;;1.66;84.28;99948.81;5075477;28;19927;-77
2023/12/09 01:45:13;;;;;;;;;;;;;;;1.68;84.28;99932.16;5075246;28;19926;-76
2023/12/09 01:47:44;;;;;;;;;;;;;;;1.67;84.14;99945.50;5074923;28;20275;-77
2023/12/09 01:50:12;;;;;;;;;;;;;;;1.68;84.02;99937.19;5074200;28;19927;-77
2023/12/09 01:52:42;;;;;;;;;;;;;;;1.72;84.89;99951.56;5073990;28;19927;-77
2023/12/09 01:55:11;;;;;;;;;;;;;;;1.72;84.50;99947.41;5075047;28;20016;-79
2023/12/09 01:57:40;;;;;;;;;;;;;;;1.73;84.19;99945.72;5074880;28;20347;-77
2023/12/09 02:00:09;;;;;;;;;;;;;;;1.67;84.11;99946.38;5091010;28;20253;-77
2023/12/09 02:02:38;;;;;;;;;;;;;;;1.64;83.94;99950.41;5090368;28;20007;-77
2023/12/09 02:05:09;;;;;;;;;;;;;;;1.68;84.57;99952.28;5090272;28;19959;-77
2023/12/09 02:07:37;;;;;;;;;;;;;;;1.69;84.69;99951.44;5074553;28;19925;-77
2023/12/09 02:10:06;;;;;;;;;;;;;;;1.69;84.61;99951.44;5057078;28;19920;-77
2023/12/09 02:12:38;;;;;;;;;;;;;;;1.69;85.03;99948.94;5072329;28;20006;-77
2023/12/09 02:15:10;;;;;;;;;;;;;;;1.72;84.43;99941.50;5074743;28;20367;-76
2023/12/09 02:17:41;;;;;;;;;;;;;;;1.75;84.68;99944.16;5073447;28;20023;-79
2023/12/09 02:20:12;;;;;;;;;;;;;;;1.79;84.68;99951.00;5090747;28;20282;-77
2023/12/09 02:22:40;;;;;;;;;;;;;;;1.80;84.85;99953.56;5074301;28;20019;-79
2023/12/09 02:25:11;;;;;;;;;;;;;;;1.79;84.42;99940.94;5074341;28;20362;-79
2023/12/09 02:27:45;;;;;;;;;;;;;;;1.80;84.09;99947.72;5074562;28;20012;-78
2023/12/09 02:30:16;;;;;;;;;;;;;;;1.84;84.39;99944.50;5073108;28;19921;-79
2023/12/09 02:32:45;;;;;;;;;;;;;;;1.83;84.68;99943.63;5074568;28;19927;-77
2023/12/09 02:35:15;;;;;;;;;;;;;;;1.83;84.23;99943.63;5074146;28;19927;-77
2023/12/09 02:37:45;;;;;;;;;;;;;;;1.82;84.60;99946.09;5074108;28;19920;-76
2023/12/09 02:40:17;;;;;;;;;;;;;;;1.82;84.35;99948.63;5089847;28;19921;-77
2023/12/09 02:42:46;;;;;;;;;;;;;;;1.85;84.16;99947.06;5074439;28;19922;-77
2023/12/09 02:45:14;;;;;;;;;;;;;;;1.86;84.38;99942.88;5074398;28;19921;-75
2023/12/09 02:47:43;;;;;;;;;;;;;;;1.87;84.03;99945.47;5072917;28;19920;-78
2023/12/09 02:50:11;;;;;;;;;;;;;;;1.89;84.55;99950.56;5072982;28;20362;-77
2023/12/09 02:52:40;;;;;;;;;;;;;;;1.89;83.95;99943.00;5073977;28;19920;-77
2023/12/09 02:55:09;;;;;;;;;;;;;;;1.88;83.95;99941.28;5072967;28;19931;-77
2023/12/09 02:57:39;;;;;;;;;;;;;;;1.87;84.51;99949.66;5074438;28;19920;-78
2023/12/09 03:00:09;;;;;;;;;;;;;;;1.86;84.37;99946.28;5056118;28;19928;-77
2023/12/09 03:02:38;;;;;;;;;;;;;;;1.90;83.74;99954.78;5072853;28;19928;-77
2023/12/09 03:05:06;;;;;;;;;;;;;;;1.90;84.10;99954.78;5073830;28;20267;-77
2023/12/09 03:07:35;;;;;;;;;;;;;;;1.87;84.20;99954.69;5074166;28;19942;-77
2023/12/09 03:10:04;;;;;;;;;;;;;;;1.84;83.82;99960.47;5039600;28;19920;-78
2023/12/09 03:12:33;;;;;;;;;;;;;;;1.84;83.91;99959.59;5072848;28;20007;-78
2023/12/09 03:15:05;;;;;;;;;;;;;;;1.83;83.80;99967.94;5072742;28;19927;-78
2023/12/09 03:17:34;;;;;;;;;;;;;;;1.85;83.83;99971.34;5074001;28;20376;-79
2023/12/09 03:20:04;;;;;;;;;;;;;;;1.84;84.02;99974.69;5072862;28;20370;-78
2023/12/09 03:22:35;;;;;;;;;;;;;;;1.83;83.79;99980.50;5074069;28;19920;-79
2023/12/09 03:25:04;;;;;;;;;;;;;;;1.79;83.66;99976.16;5077409;28;19927;-78
2023/12/09 03:27:33;;;;;;;;;;;;;;;1.80;84.65;99981.25;5077958;28;19921;-78
2023/12/09 03:30:04;;;;;;;;;;;;;;;1.82;84.20;99976.28;5076301;28;19948;-78
2023/12/09 03:32:33;;;;;;;;;;;;;;;1.81;83.77;99984.63;5093769;28;19920;-78
2023/12/09 03:35:01;;;;;;;;;;;;;;;1.81;83.85;99980.47;5059806;28;20442;-78
2023/12/09 03:37:30;;;;;;;;;;;;;;;1.79;84.55;99976.16;5077839;28;19924;-79
2023/12/09 03:39:59;;;;;;;;;;;;;;;1.79;84.61;99976.16;5077669;28;19970;-77
2023/12/09 03:42:28;;;;;;;;;;;;;;;1.81;84.16;99972.91;5076503;28;19920;-77
2023/12/09 03:44:57;;;;;;;;;;;;;;;1.84;84.82;99969.66;5076449;28;19943;-77
2023/12/09 03:47:27;;;;;;;;;;;;;;;1.82;84.43;99966.22;5093493;28;19927;-76
2023/12/09 03:49:57;;;;;;;;;;;;;;;1.77;83.98;99957.66;5060215;28;20412;-79
2023/12/09 03:52:25;;;;;;;;;;;;;;;1.79;84.80;99966.09;5075939;28;20015;-77
2023/12/09 03:54:55;;;;;;;;;;;;;;;1.80;83.98;99962.81;5077057;28;20454;-77
2023/12/09 03:57:24;;;;;;;;;;;;;;;1.81;84.41;99961.97;5076058;28;19928;-78
2023/12/09 03:59:53;;;;;;;;;;;;;;;1.82;84.34;99961.19;5077333;28;19920;-77
2023/12/09 04:02:22;;;;;;;;;;;;;;;1.81;84.23;99965.38;5076765;28;19927;-79
2023/12/09 04:04:52;;;;;;;;;;;;;;;1.79;84.32;99956.91;5076034;28;20007;-77
2023/12/09 04:07:21;;;;;;;;;;;;;;;1.78;84.84;99955.19;5077261;28;19959;-77
2023/12/09 04:09:50;;;;;;;;;;;;;;;1.77;84.39;99958.50;5076890;28;20023;-77
2023/12/09 04:12:18;;;;;;;;;;;;;;;1.76;84.26;99954.25;5077036;28;19920;-77
2023/12/09 04:14:47;;;;;;;;;;;;;;;1.75;84.18;99959.25;5092763;28;19963;-79
2023/12/09 04:17:17;;;;;;;;;;;;;;;1.74;84.72;99962.56;5043281;28;20390;-78
2023/12/09 04:19:45;;;;;;;;;;;;;;;1.73;84.31;99960.81;5075630;28;19920;-79
2023/12/09 04:22:17;;;;;;;;;;;;;;;1.71;84.27;99964.94;5077032;28;20366;-78
2023/12/09 04:24:47;;;;;;;;;;;;;;;1.67;84.16;99960.59;5076591;28;20344;-77
2023/12/09 04:27:16;;;;;;;;;;;;;;;1.63;84.74;99959.59;5076541;28;19956;-77
2023/12/09 04:29:45;;;;;;;;;;;;;;;1.64;84.51;99961.34;5092524;28;20018;-77
2023/12/09 04:32:13;;;;;;;;;;;;;;;1.64;84.86;99961.34;5075241;28;19921;-77
2023/12/09 04:34:43;;;;;;;;;;;;;;;1.66;84.53;99968.94;5074904;28;19920;-77
2023/12/09 04:37:11;;;;;;;;;;;;;;;1.65;84.81;99972.25;5091718;28;19920;-77
2023/12/09 04:39:41;;;;;;;;;;;;;;;1.61;85.05;99973.78;5076941;28;19924;-77
2023/12/09 04:42:10;;;;;;;;;;;;;;;1.65;84.51;99969.75;5075423;28;20263;-77
2023/12/09 04:44:39;;;;;;;;;;;;;;;1.69;84.84;99976.59;5076521;28;20032;-77
2023/12/09 04:47:08;;;;;;;;;;;;;;;1.66;84.91;99963.91;5076531;28;19961;-76
2023/12/09 04:49:36;;;;;;;;;;;;;;;1.63;84.72;99969.66;5075276;28;19924;-77
2023/12/09 04:52:06;;;;;;;;;;;;;;;1.62;85.46;99972.13;5074968;28;19959;-77
2023/12/09 04:54:34;;;;;;;;;;;;;;;1.64;85.24;99963.00;5091712;28;19969;-77
2023/12/09 04:57:06;;;;;;;;;;;;;;;1.61;85.14;99970.44;5074784;28;19943;-77
2023/12/09 04:59:34;;;;;;;;;;;;;;;1.62;85.41;99974.66;5075038;28;19920;-77
2023/12/09 05:02:03;;;;;;;;;;;;;;;1.59;85.58;99970.34;5074914;28;20015;-76
2023/12/09 05:04:32;;;;;;;;;;;;;;;1.63;85.76;99964.63;5074260;28;19928;-76
2023/12/09 05:07:01;;;;;;;;;;;;;;;1.61;85.62;99960.38;5075667;28;19931;-76
2023/12/09 05:09:30;;;;;;;;;;;;;;;1.55;85.47;99970.19;5076690;28;20377;-76
2023/12/09 05:11:58;;;;;;;;;;;;;;;1.53;85.06;99971.78;5074672;28;19926;-76
2023/12/09 05:14:29;;;;;;;;;;;;;;;1.47;84.79;99961.47;5075946;28;20341;-76
2023/12/09 05:16:57;;;;;;;;;;;;;;;1.43;85.13;99960.50;5075958;28;19920;-77
2023/12/09 05:19:26;;;;;;;;;;;;;;;1.43;84.60;99964.66;5074603;28;19966;-77
2023/12/09 05:21:55;;;;;;;;;;;;;;;1.40;85.09;99964.53;5075654;28;20003;-78
2023/12/09 05:24:24;;;;;;;;;;;;;;;1.40;84.15;99964.53;5057369;28;20267;-78
2023/12/09 05:26:53;;;;;;;;;;;;;;;1.42;84.84;99962.97;5075302;28;19920;-76
2023/12/09 05:29:21;;;;;;;;;;;;;;;1.40;84.94;99960.38;5074361;28;20371;-76
2023/12/09 05:31:51;;;;;;;;;;;;;;;1.40;84.53;99969.56;5075281;28;19920;-76
2023/12/09 05:34:20;;;;;;;;;;;;;;;1.40;84.35;99969.56;5041507;28;19921;-76
2023/12/09 05:36:49;;;;;;;;;;;;;;;1.37;84.82;99974.50;5090848;28;19952;-77
2023/12/09 05:39:18;;;;;;;;;;;;;;;1.37;84.17;99971.97;5075484;28;19956;-77
2023/12/09 05:41:46;;;;;;;;;;;;;;;1.35;84.35;99967.72;5074277;28;19920;-77
2023/12/09 05:44:15;;;;;;;;;;;;;;;1.34;84.62;99972.72;5075202;28;19920;-77
2023/12/09 05:46:43;;;;;;;;;;;;;;;1.33;84.62;99979.38;5074891;28;20011;-78
2023/12/09 05:49:14;;;;;;;;;;;;;;;1.35;84.41;99976.94;5075295;28;19924;-78
2023/12/09 05:51:44;;;;;;;;;;;;;;;1.36;84.63;99978.66;5075142;28;20011;-78
2023/12/09 05:54:13;;;;;;;;;;;;;;;1.37;84.19;99972.81;5075140;28;19920;-77
2023/12/09 05:56:47;;;;;;;;;;;;;;;1.34;84.45;99971.03;5056752;28;19924;-76
2023/12/09 05:59:16;;;;;;;;;;;;;;;1.34;84.13;99967.69;5073665;28;19920;-76
2023/12/09 06:01:45;;;;;;;;;;;;;;;1.35;83.99;99972.75;5074578;28;20377;-76
2023/12/09 06:04:15;;;;;;;;;;;;;;;1.34;84.18;99971.03;5074296;28;20019;-77
2023/12/09 06:06:44;;;;;;;;;;;;;;;1.33;83.52;99974.38;5074930;28;19921;-76
2023/12/09 06:09:13;;;;;;;;;;;;;;;1.33;84.07;99979.38;5073483;28;20247;-77
2023/12/09 06:11:43;;;;;;;;;;;;;;;1.31;84.42;99986.00;5074642;28;20019;-78
2023/12/09 06:14:12;;;;;;;;;;;;;;;1.29;84.09;99976.69;5056758;28;20054;-78
2023/12/09 06:16:40;;;;;;;;;;;;;;;1.30;84.56;99981.78;5072889;28;20344;-76
2023/12/09 06:19:09;;;;;;;;;;;;;;;1.30;84.35;99980.91;5074504;28;19920;-78
2023/12/09 06:21:39;;;;;;;;;;;;;;;1.31;84.23;99986.00;5074492;28;19970;-77
2023/12/09 06:24:07;;;;;;;;;;;;;;;1.33;84.55;99988.59;5074445;28;20354;-77
2023/12/09 06:26:42;;;;;;;;;;;;;;;1.31;84.58;99986.00;5074720;28;19927;-76
2023/12/09 06:29:13;;;;;;;;;;;;;;;1.30;84.56;99981.78;5072989;28;19924;-77
2023/12/09 06:31:42;;;;;;;;;;;;;;;1.31;84.70;99975.97;5073327;28;20035;-76
2023/12/09 06:34:11;;;;;;;;;;;;;;;1.31;84.61;99980.13;5074207;28;20019;-78
2023/12/09 06:36:42;;;;;;;;;;;;;;;1.32;83.82;99981.81;5074310;28;19920;-77
2023/12/09 06:39:11;;;;;;;;;;;;;;;1.28;84.58;99970.81;5073049;28;19952;-76
2023/12/09 06:41:40;;;;;;;;;;;;;;;1.31;84.52;99970.94;5072943;28;19928;-78
2023/12/09 06:44:09;;;;;;;;;;;;;;;1.34;84.77;99976.06;5073911;28;19920;-78
2023/12/09 06:46:39;;;;;;;;;;;;;;;1.39;84.76;99977.91;5074166;28;19920;-78
2023/12/09 06:49:07;;;;;;;;;;;;;;;1.43;84.01;99979.75;5073009;28;19928;-78
2023/12/09 06:51:36;;;;;;;;;;;;;;;1.42;84.77;99978.88;5072442;28;19920;-75
2023/12/09 06:54:06;;;;;;;;;;;;;;;1.42;84.19;99978.06;5089113;28;19973;-74
2023/12/09 06:56:36;;;;;;;;;;;;;;;1.45;84.69;99980.66;5073333;28;20274;-75
2023/12/09 06:59:05;;;;;;;;;;;;;;;1.44;84.75;99986.50;5072249;28;19960;-74
2023/12/09 07:01:34;;;;;;;;;;;;;;;1.44;84.81;99981.47;5072822;28;19924;-75
2023/12/09 07:04:02;;;;;;;;;;;;;;;1.43;83.76;99984.78;5073321;28;19973;-75
2023/12/09 07:06:31;;;;;;;;;;;;;;;1.44;84.28;99984.81;5074828;28;20269;-75
2023/12/09 07:08:59;;;;;;;;;;;;;;;1.44;84.08;99984.00;5072811;28;19924;-75
2023/12/09 07:11:30;;;;;;;;;;;;;;;1.41;83.73;99977.19;5055744;28;19920;-74
2023/12/09 07:13:58;;;;;;;;;;;;;;;1.41;83.67;99981.34;5089326;28;19921;-74
2023/12/09 07:16:27;;;;;;;;;;;;;;;1.41;84.18;99981.34;5055936;28;19920;-75
2023/12/09 07:18:59;;;;;;;;;;;;;;;1.40;83.86;99980.47;5073505;28;19960;-76
2023/12/09 07:21:28;;;;;;;;;;;;;;;1.45;84.41;99978.16;5072719;28;20377;-74
2023/12/09 07:23:57;;;;;;;;;;;;;;;1.45;84.58;99980.66;5073736;28;20027;-75
2023/12/09 07:26:26;;;;;;;;;;;;;;;1.45;83.81;99985.69;5073855;28;19960;-74
2023/12/09 07:28:56;;;;;;;;;;;;;;;1.43;84.06;99987.28;5073712;28;19920;-74
2023/12/09 07:31:25;;;;;;;;;;;;;;;1.42;84.35;99991.47;5074060;28;19927;-74
2023/12/09 07:33:53;;;;;;;;;;;;;;;1.43;84.24;99989.81;5073523;28;20011;-74
2023/12/09 07:36:22;;;;;;;;;;;;;;;1.41;84.26;99991.41;5089287;28;19954;-74
2023/12/09 07:38:51;;;;;;;;;;;;;;;1.42;84.20;99993.97;5073607;28;19921;-75
2023/12/09 07:41:20;;;;;;;;;;;;;;;1.45;84.39;99991.59;5073861;28;19943;-75
2023/12/09 07:43:48;;;;;;;;;;;;;;;1.48;83.63;100000.91;5073597;28;19921;-74
2023/12/09 07:46:18;;;;;;;;;;;;;;;1.50;84.12;99996.78;5073539;28;20402;-74
2023/12/09 07:48:47;;;;;;;;;;;;;;;1.51;84.01;99998.53;5073881;28;19920;-74
2023/12/09 07:51:15;;;;;;;;;;;;;;;1.55;84.22;100000.34;5071921;28;20320;-74
2023/12/09 07:53:44;;;;;;;;;;;;;;;1.56;83.32;100007.13;5071970;28;19921;-74
2023/12/09 07:56:13;;;;;;;;;;;;;;;1.55;83.96;100011.28;5073172;28;20045;-74
2023/12/09 07:58:41;;;;;;;;;;;;;;;1.57;83.68;100008.81;5073437;28;19921;-75
2023/12/09 08:01:10;;;;;;;;;;;;;;;1.58;83.37;100013.06;5073302;28;19927;-74
2023/12/09 08:03:40;;;;;;;;;;;;;;;1.56;83.82;100012.16;5088742;28;19928;-74
2023/12/09 08:06:10;;;;;;;;;;;;;;;1.56;84.01;100025.56;5073398;28;19924;-74
2023/12/09 08:08:38;;;;;;;;;;;;;;;1.52;83.86;100020.34;5073528;28;20284;-74
2023/12/09 08:11:07;;;;;;;;;;;;;;;1.51;83.93;100011.09;5075121;28;20290;-74
2023/12/09 08:13:36;;;;;;;;;;;;;;;1.51;84.25;100016.13;5077206;28;20354;-74
2023/12/09 08:16:05;;;;;;;;;;;;;;;1.55;84.10;100020.47;5077007;28;19921;-74
2023/12/09 08:18:34;;;;;;;;;;;;;;;1.55;83.88;100018.81;5077010;28;19931;-74
2023/12/09 08:21:05;;;;;;;;;;;;;;;1.57;84.02;100014.72;5076621;28;20003;-74
2023/12/09 08:23:33;;;;;;;;;;;;;;;1.61;84.12;100013.19;5075805;28;20412;-74
2023/12/09 08:26:03;;;;;;;;;;;;;;;1.62;83.32;100022.44;5076895;28;19942;-74
2023/12/09 08:28:34;;;;;;;;;;;;;;;1.62;83.93;100019.94;5076847;28;19927;-74
2023/12/09 08:31:04;;;;;;;;;;;;;;;1.63;83.85;100027.50;5075617;28;19927;-74
2023/12/09 08:33:33;;;;;;;;;;;;;;;1.68;83.58;100017.66;5076477;28;19943;-74
2023/12/09 08:36:06;;;;;;;;;;;;;;;1.70;83.69;100016.06;5075650;28;20392;-74
2023/12/09 08:38:35;;;;;;;;;;;;;;;1.70;83.29;100021.09;5076628;28;19956;-74
2023/12/09 08:41:04;;;;;;;;;;;;;;;1.72;83.55;100019.50;5076651;28;19925;-74
2023/12/09 08:43:33;;;;;;;;;;;;;;;1.73;83.87;100026.22;5075266;28;19927;-75
2023/12/09 08:46:02;;;;;;;;;;;;;;;1.71;83.83;100020.28;5092150;28;19920;-74
2023/12/09 08:48:30;;;;;;;;;;;;;;;1.70;83.82;100026.13;5076497;28;19982;-74
2023/12/09 08:50:59;;;;;;;;;;;;;;;1.69;83.28;100019.38;5076357;28;20043;-74
2023/12/09 08:53:29;;;;;;;;;;;;;;;1.74;83.14;100017.91;5076276;28;19921;-74
2023/12/09 08:55:58;;;;;;;;;;;;;;;1.74;84.04;100017.91;5071813;28;20374;-74
2023/12/09 08:58:26;;;;;;;;;;;;;;;1.74;83.52;100022.94;5064059;28;19920;-74
2023/12/09 09:00:55;;;;;;;;;;;;;;;1.70;83.40;100016.06;5065297;28;19931;-74
2023/12/09 09:03:24;;;;;;;;;;;;;;;1.72;83.46;100009.44;5075733;28;19924;-74
2023/12/09 09:05:53;;;;;;;;;;;;;;;1.70;82.83;100011.03;5075798;28;19920;-74
2023/12/09 09:08:21;;;;;;;;;;;;;;;1.68;83.32;100010.13;5075699;28;20297;-74
2023/12/09 09:10:51;;;;;;;;;;;;;;;1.69;82.78;100014.34;5074779;28;19920;-74
2023/12/09 09:13:20;;;;;;;;;;;;;;;1.71;83.02;100008.56;5076159;28;19987;-74
2023/12/09 09:15:48;;;;;;;;;;;;;;;1.73;83.63;100009.47;5075945;28;19920;-74
2023/12/09 09:18:19;;;;;;;;;;;;;;;1.73;83.45;100011.13;5075614;28;20015;-75
2023/12/09 09:20:47;;;;;;;;;;;;;;;1.73;83.22;100011.13;5075684;28;19927;-75
2023/12/09 09:23:16;;;;;;;;;;;;;;;1.76;83.67;100008.75;5075578;28;19920;-75
2023/12/09 09:25:45;;;;;;;;;;;;;;;1.78;83.18;99994.56;5075693;28;19924;-74
2023/12/09 09:28:15;;;;;;;;;;;;;;;1.77;83.47;99995.38;5075751;28;19927;-74
2023/12/09 09:30:44;;;;;;;;;;;;;;;1.78;83.21;99984.50;5075710;28;19926;-75
2023/12/09 09:33:12;;;;;;;;;;;;;;;1.79;82.98;99984.59;5075698;28;20020;-74
2023/12/09 09:35:41;;;;;;;;;;;;;;;1.86;83.34;99990.69;5075191;28;19920;-76
2023/12/09 10:30:52;;;;;;;4.35;1.80;;;;;;;1.62;83.43;99937.78;5132864;27;20402;-76
2023/12/09 10:33:22;;;;;;;1.02;0.98;;;;;;;1.72;82.61;99928.94;5131266;28;20047;-77
2023/12/09 10:35:52;;;;;;;0.68;0.68;;;;;;;1.76;82.21;99920.69;5132126;27;20132;-77
2023/12/09 10:38:21;;;;;;;1.20;1.10;;;;;;;1.81;83.11;99924.25;5130872;28;20044;-77
2023/12/09 10:40:51;;;;;;;2.47;2.27;;;;;;;1.86;82.93;99933.69;5130847;28;20035;-77
2023/12/09 10:43:20;;;;;;;2.13;1.92;;;;;;;1.77;82.06;99920.78;5131777;28;20130;-77
2023/12/09 10:45:49;;;;;;;1.13;1.03;;;;;;;1.87;82.84;99932.88;5129054;28;20428;-76
2023/12/09 10:48:19;;;;;;;4.40;2.33;;;;;;;1.88;81.80;99941.28;5131677;27;20039;-76
2023/12/09 10:50:50;;;;;;;1.48;0.98;;;;;;;1.91;82.34;99936.38;5131727;28;20043;-77
2023/12/09 10:53:21;;;;;;;0.80;0.80;;;;;;;1.87;82.25;99914.44;5131469;28;20092;-77
2023/12/09 10:55:50;;;;;;;1.45;1.35;;;;;;;1.59;82.44;99873.91;5130390;28;20039;-76
2023/12/09 10:58:20;;;;;;;4.40;1.67;;;;;;;1.96;81.84;99924.81;5113131;28;20050;-76
2023/12/09 11:00:50;;;;;;;1.45;1.35;;;;;;;1.94;82.56;99921.41;5130500;28;20041;-76
2023/12/09 11:03:22;;;;;;;0.77;0.77;;;;;;;1.93;82.68;99924.72;5131646;27;20039;-76
2023/12/09 11:05:54;;;;;;;1.17;1.08;;;;;;;1.92;82.66;99933.91;5131170;27;20051;-77
2023/12/09 11:08:28;;;;;;;1.63;1.52;;;;;;;1.90;82.08;99932.13;5130023;28;20055;-76
2023/12/09 11:10:57;;;;;;;4.78;1.40;;;;;;;1.90;82.56;99932.13;5131115;27;20043;-77
2023/12/09 11:13:30;;;;;;;0.85;0.85;;;;;;;1.75;82.18;99903.91;5131026;28;20056;-77
2023/12/09 11:16:11;;;;;;;1.83;1.48;;;;;;;1.87;82.15;99916.94;5129821;28;20054;-77
2023/12/09 11:18:53;;;;;;;1.65;1.55;;;;;;;1.83;81.38;99917.59;5131228;27;20048;-77
2023/12/09 11:21:26;;;;;;;1.20;1.15;;;;;;;1.81;81.94;99906.63;5112753;28;20047;-76
2023/12/09 11:23:56;;;;;;;1.70;0.95;;;;;;;1.78;81.79;99914.06;5130687;28;20086;-77
2023/12/09 11:26:29;;;;;;;2.25;1.17;;;;;;;1.78;81.36;99917.44;5110581;28;20093;-77
2023/12/09 11:29:03;;;;;;;1.30;1.20;;;;;;;1.74;81.85;99907.22;5109003;28;20079;-77
2023/12/09 11:31:37;;;;;;;0.90;0.90;;;;;;;1.80;81.51;99917.53;5109090;28;20514;-77
2023/12/09 11:34:09;;;;;;;1.42;1.33;;;;;;;1.73;81.60;99900.44;5110366;28;20118;-77
2023/12/09 11:36:40;;;;;;;0.60;0.60;;;;;;;1.74;82.13;99909.72;5110151;28;20036;-76
2023/12/09 11:39:11;;;;;;;0.65;0.65;;;;;;;1.70;82.52;99910.41;5110150;28;20040;-78
2023/12/09 11:41:41;;;;;;;1.17;1.10;;;;;;;1.66;82.24;99908.56;5081565;28;20063;-77
2023/12/09 11:44:10;;;;;;;0.60;0.60;;;;;;;1.68;82.41;99905.31;5095515;28;20040;-76
2023/12/09 11:46:40;;;;;;;0.60;0.60;;;;;;;0.88;81.68;99766.50;5061377;28;20040;-77
2023/12/09 11:49:10;;;;;;;2.00;1.90;;;;;;;1.65;82.02;99901.84;5095168;28;20040;-76
2023/12/09 11:51:39;;;;;;;0.95;0.95;;;;;;;1.61;82.46;99895.00;5078293;28;20053;-76
2023/12/09 11:54:10;;;;;;;1.35;1.27;;;;;;;1.66;82.39;99898.50;5096384;28;20123;-77
2023/12/09 11:56:40;;;;;;;2.10;2.00;;;;;;;1.66;82.11;99898.50;5113148;28;20512;-77
2023/12/09 11:59:09;;;;;;;1.23;1.15;;;;;;;1.29;82.57;99836.78;5116614;28;20043;-77
2023/12/09 12:01:37;;;;;;;1.30;1.20;;;;;;;1.70;82.67;99893.69;5116406;28;20042;-77
2023/12/09 12:04:06;;;;;;;2.53;1.83;;;;;;;1.72;82.79;99888.69;5097667;28;20075;-77
2023/12/09 12:06:37;;;;;;;1.15;1.05;;;;;;;1.62;82.21;99872.41;5114973;28;20492;-77
2023/12/09 12:09:06;;;;;;;1.75;1.63;;;;;;;1.66;82.48;99880.91;5116314;28;20071;-78
2023/12/09 12:11:35;;;;;;;1.58;1.48;;;;;;;1.71;82.36;99892.00;5116374;28;20040;-78
2023/12/09 12:14:04;;;;;;;1.00;0.97;;;;;;;1.70;82.18;99890.28;5116569;28;20289;-77
2023/12/09 12:16:33;;;;;;;;;;;;;;;1.71;82.96;99885.31;5116685;28;20044;-77
2023/12/09 12:19:01;;;;;;;1.15;1.08;;;;;;;1.69;82.46;99876.84;5116192;28;19973;-77
2023/12/09 12:21:30;;;;;;;0.85;0.82;;;;;;;1.72;82.10;99873.59;5116119;28;20051;-78
2023/12/09 12:24:04;;;;;;;0.87;0.87;;;;;;;1.63;82.33;99864.03;5115202;28;20531;-78
2023/12/09 12:26:33;;;;;;;1.58;1.45;;;;;;;1.70;82.39;99875.19;5114840;28;20046;-76
2023/12/09 12:29:03;;;;;;;0.50;0.50;;;;;;;1.68;82.04;99871.78;5097454;28;20051;-78
2023/12/09 12:31:34;;;;;;;0.50;0.50;;;;;;;1.61;82.14;99867.31;5116162;28;20043;-77
2023/12/09 12:34:15;;;;;;;1.42;1.33;;;;;;;1.62;81.95;99861.47;5114970;28;20397;-77
2023/12/09 12:36:44;;;;;;;1.02;1.02;;;;;;;1.71;82.47;99871.88;5115823;28;20135;-77
2023/12/09 12:39:16;;;;;;;0.40;0.40;;;;;;;1.71;82.18;99876.91;5097493;28;20067;-78
2023/12/09 12:41:46;;;;;;;1.88;1.73;;;;;;;1.70;81.82;99870.16;5116018;28;20138;-78
2023/12/09 12:44:15;;;;;;;2.50;2.30;;;;;;;1.75;82.10;99868.69;5115812;28;20081;-77
2023/12/09 12:46:44;;;;;;;0.55;0.55;;;;;;;1.75;81.26;99868.69;5115689;28;20489;-76
2023/12/09 12:49:13;;;;;;;;;;;;;;;1.75;81.51;99856.09;5115998;28;20032;-76
2023/12/09 12:51:42;;;;;;;0.60;0.60;;;;;;;1.74;81.42;99847.69;5114109;28;20006;-78
2023/12/09 12:54:11;;;;;;;2.22;1.85;;;;;;;1.69;80.97;99838.25;5115058;28;20469;-77
2023/12/09 12:56:42;;;;;;;2.07;1.97;;;;;;;1.77;81.38;99841.94;5097632;28;20068;-76
2023/12/09 12:59:11;;;;;;;1.58;1.48;;;;;;;1.78;81.51;99839.44;5114283;28;20047;-78
2023/12/09 13:01:40;;;;;;;;;;;;;;;1.81;80.56;99838.72;5116137;28;20054;-78
2023/12/09 13:04:09;;;;;;;1.33;1.23;;;;;;;1.83;80.80;99832.06;5115373;28;20271;-76
2023/12/09 13:06:38;;;;;;;0.60;0.57;;;;;;;1.81;80.41;99828.66;5116055;28;20130;-76
2023/12/09 13:09:08;;;;;;;0.52;0.52;;;;;;;1.77;80.58;99826.84;5115783;28;20035;-77
2023/12/09 13:11:37;;;;;;;0.50;0.50;;;;;;;1.76;80.50;99830.13;5113845;28;20043;-78
2023/12/09 13:14:08;;;;;;;2.27;2.13;;;;;;;1.80;80.62;99826.94;5114253;28;20036;-78
2023/12/09 13:16:39;;;;;;;2.13;1.95;;;;;;;1.75;80.37;99814.19;5115146;28;20276;-77
2023/12/09 13:19:09;;;;;;;1.02;0.93;;;;;;;1.75;79.67;99813.34;5115375;28;20536;-75
2023/12/09 13:21:38;;;;;;;2.45;2.28;;;;;;;1.76;79.49;99804.97;5096895;28;20043;-78
2023/12/09 13:24:08;;;;;;;2.70;2.15;;;;;;;1.63;79.68;99783.53;5113785;28;20043;-76
2023/12/09 13:26:37;;;;;;;1.15;1.05;;;;;;;1.81;78.86;99813.56;5113709;28;20130;-77
2023/12/09 13:29:08;;;;;;;8.57;2.78;;;;;;;1.83;79.15;99816.97;5096272;28;20048;-76
2023/12/09 13:31:37;;;;;;;0.75;0.75;;;;;;;1.86;79.54;99802.00;5113659;28;20062;-76
2023/12/09 13:34:06;;;;;;;0.80;0.80;;;;;;;1.86;79.33;99807.88;5113348;28;20043;-76
2023/12/09 13:36:38;;;;;;;;;;;;;;;1.87;78.59;99811.28;5114854;28;20276;-77
2023/12/09 13:39:11;;;;;;;0.47;0.47;;;;;;;1.87;79.14;99806.25;5114800;28;19919;-76